Mr Aries — V7ML4 — position and weather

sailwx.info

Track history (hours):
 
Tides and Currents Weather Stations Pressure Air Temp Water Temp Dewpoint Dewpoint Depression Visibility Wind Speed Wind Dir Waves Ship Positions

Mr Aries

Last reported at 2017-Mar-22 19:31 UTC. Time now 2017-Aug-24 05:03 UTC.
Position N 31°51' E 031°43'.
Warning: this ship's position is months out of date.

Length 183 m; draft 11 m.

Type: Ship. MMSI: 538002869.

Date/timePositionNaut miles runAvg speedWind from/ knotsBaromVisibWave heightAir tempDewpointWater temp
2017-Mar-22 19:31N 31°51' E 031°43'  
2017-Mar-20 12:04N 35°28' E 017°37'2713.5
2017-Mar-20 10:03N 35°35' E 017°05'2013.3
2017-Mar-20 08:33N 35°41' E 016°41'1313.4
2017-Mar-20 07:33N 35°45' E 016°25'1414.0
2017-Mar-20 06:32N 35°49' E 016°08'2914.0
2017-Mar-20 04:28N 35°58' E 015°34'1513.7
2017-Mar-20 03:21N 36°02' E 015°16'1113.7
2017-Mar-20 02:33N 36°05' E 015°03'1313.4
2017-Mar-20 01:33N 36°09' E 014°47'1313.0
2017-Mar-20 00:33N 36°13' E 014°32'1413.7
2017-Mar-19 23:33N 36°16' E 014°15'1414.1
2017-Mar-19 22:33N 36°21' E 013°59'1413.6
2017-Mar-19 21:33N 36°24' E 013°42'1313.0
2017-Mar-19 20:33N 36°29' E 013°27'1312.9
2017-Mar-19 19:33N 36°32' E 013°12'1212.6
2017-Mar-19 18:33N 36°35' E 012°57'20413.5
2017-Mar-19 03:25N 38°15' E 009°12'1113.1
2017-Mar-19 02:33N 38°21' E 008°60'1513.3
2017-Mar-19 01:25N 38°28' E 008°43'27913.4
2017-Mar-18 04:33N 40°44' E 003°27'1313.4
2017-Mar-18 03:33N 40°51' E 003°11'1313.3
2017-Mar-18 02:33N 40°58' E 002°56'1313.3
2017-Mar-18 01:33N 41°04' E 002°40'1313.5
2017-Mar-18 00:33N 41°11' E 002°25'1212.5
2017-Mar-17 23:33N 41°17' E 002°11'  
2017-Mar-14 22:30N 41°21' E 002°10'2 0.3
2017-Mar-14 14:09N 41°19' E 002°11'0 0.0
2017-Mar-14 13:33N 41°19' E 002°11'0 0.0
2017-Mar-14 12:33N 41°19' E 002°11'0 0.0
2017-Mar-14 11:33N 41°19' E 002°11'  
Track history (hours):
 
Tides and Currents Weather Stations Pressure Air Temp Water Temp Dewpoint Dewpoint Depression Visibility Wind Speed Wind Dir Waves Ship Positions

Mr Aries

Last reported at 2017-Mar-22 19:31 UTC. Time now 2017-Aug-24 05:03 UTC.
Position N 31°51' E 031°43'.
Warning: this ship's position is months out of date.

Length 183 m; draft 11 m.

Type: Ship. MMSI: 538002869.

Date/timePositionNaut miles runAvg speedWind from/ knotsBaromVisibWave heightAir tempDewpointWater temp
2017-Mar-22 19:31N 31°51' E 031°43'  
2017-Mar-20 12:04N 35°28' E 017°37'2713.5
2017-Mar-20 10:03N 35°35' E 017°05'2013.3
2017-Mar-20 08:33N 35°41' E 016°41'1313.4
2017-Mar-20 07:33N 35°45' E 016°25'1414.0
2017-Mar-20 06:32N 35°49' E 016°08'2914.0
2017-Mar-20 04:28N 35°58' E 015°34'1513.7
2017-Mar-20 03:21N 36°02' E 015°16'1113.7
2017-Mar-20 02:33N 36°05' E 015°03'1313.4
2017-Mar-20 01:33N 36°09' E 014°47'1313.0
2017-Mar-20 00:33N 36°13' E 014°32'1413.7
2017-Mar-19 23:33N 36°16' E 014°15'1414.1
2017-Mar-19 22:33N 36°21' E 013°59'1413.6
2017-Mar-19 21:33N 36°24' E 013°42'1313.0
2017-Mar-19 20:33N 36°29' E 013°27'1312.9
2017-Mar-19 19:33N 36°32' E 013°12'1212.6
2017-Mar-19 18:33N 36°35' E 012°57'20413.5
2017-Mar-19 03:25N 38°15' E 009°12'1113.1
2017-Mar-19 02:33N 38°21' E 008°60'1513.3
2017-Mar-19 01:25N 38°28' E 008°43'27913.4
2017-Mar-18 04:33N 40°44' E 003°27'1313.4
2017-Mar-18 03:33N 40°51' E 003°11'1313.3
2017-Mar-18 02:33N 40°58' E 002°56'1313.3
2017-Mar-18 01:33N 41°04' E 002°40'1313.5
2017-Mar-18 00:33N 41°11' E 002°25'1212.5
2017-Mar-17 23:33N 41°17' E 002°11'  
2017-Mar-14 22:30N 41°21' E 002°10'2 0.3
2017-Mar-14 14:09N 41°19' E 002°11'0 0.0
2017-Mar-14 13:33N 41°19' E 002°11'0 0.0
2017-Mar-14 12:33N 41°19' E 002°11'0 0.0
2017-Mar-14 11:33N 41°19' E 002°11'  

Dump ship's entire track history